Portada
METAR-TAF:

METAR-TAF

Aeropuertos :

Höfn, Islandia

latitud: 64-18N, longitud: 015-13W, altitud: 17 m

Observación

El informe se hizo hace 34 minutos, a las 15:00 UTC
Viento 25 kt del oeste
Temperatura 2°C
Humedad 37%
Presión 999 hPa
Visibilidad 10 km o más
Escasas nubes a una altura de 4000 ft

METAR: BIHN 011500Z 27025KT 9999 FEW040 02/M11 Q0999

Hora: 15:34 (15:34 UTC)

Pronóstico

El informe se hizo hace 2 horas y 14 minutos, a las 13:20 UTC
Pronóstico válido del 01 a las 14 UTC al 01 a las 23 UTC
Viento 27 kt del oeste con ráfagas de 37 kt
Visibilidad 10 km o más
sin nubes por debajo de 1500 m y sin presencia de cumulonimbus.
Evolucionando progresivamente
del 01 a las 18 UTC al 01 a las 20 UTC
Viento 37 kt del norte-noroeste con ráfagas de 50 kt
Visibilidad 10 km o más
Escasas nubes a una altura de 2500 ft
Nubes dispersas a una altura de 3500 ft

TAF: BIHN 011320Z 0114/0123 28027G37KT CAVOK BECMG 0118/0120 34037G50KT 9999 FEW025 SCT035

Observaciones y pronósticos meteorológicos de más de 4000 aeropuertos (mensajes METAR y TAF).

Los puntos amarillos y rojos representan las estaciones disponibles.

Ponga el ratón en el punto deseado para ver el nombre de la estación.

Haga clic para ver las observaciones y los pronósticos meteorológicos.

Para cambiar el mapa : haga clic en los botones verdes con una cruz de color negro para hacer un zoom, en el botón verde con un guión para alejar o en las flechas verdes para mapas adyacentes.


METAR-TAF: